Aura, New Jersey
Current Conditions -  °F | °C
As of 11:54 PM on Sunday 23 Nov 2014 (Local Time) from KPHL Reporting Station
Light Rain Light Rain  
Wind Chill: 56°   Ceiling: 3500
Heat Index: 56°   Visibility: 9mi
Dew Point: 52°   Wind: 9mph
Humidity: 87%   Direction: 120°ESE
Pressure: 29.92"   Gusts: NA
Location:  39.6996°N, 75.1187°W
Report Text: KPHL 240454Z 12008KT 9SM -RA FEW026 BKN035 OVC050 13/11 A2992 RMK AO2 RAB40 PRESFR SLP130 P0000 T01330111 401390033 $
Loading
Personal Weather Stations






























Interactive Weather Map New forecast layout! Learn more

10-Day Weather Forecast

Advertisements
Track Severe Weather on mobile